Nearby METAR Reports

 

KFNL - Ft Collins/Lovel, Colorado, USA
Distance from station: E 23mi, 37km
Updated: Sun, 29-Nov-2020 11:56pm MST
Clear
Clear
 Wind from calm
Wind: Calm
Temperature: 25°F , -4°C
Dew Point: 18°F , -8°C
Humidity: 74%
Barometer: 30.38 inHg , 1028.8 hPa
Clouds: Clear
Visibility: 10 miles , 16 km
2020/11/30 06:56 KFNL 300656Z AUTO 00000KT 10SM CLR M04/M08 A3038 RMK AO2 SLP305 T10441083 400611067 FZRANO
KLMO - Longmont/Vbrand, Colorado, USA
Distance from station: SE 26mi, 41km
Updated: Mon, 30-Nov-2020 12:15am MST
Clear
Clear
 Wind from calm
Wind: Calm
Temperature: 21°F , -6°C
Dew Point: 14°F , -10°C
Humidity: 74%
Barometer: 30.39 inHg , 1029.1 hPa
Clouds: Clear
Visibility: 10 miles , 16 km
2020/11/30 07:15 KLMO 300715Z AUTO 00000KT 10SM CLR M06/M10 A3039 RMK AO2 T10621100
 
KBDU - Boulder Muni, Colorado, USA
Distance from station: SSE 32mi, 52km
Updated: Mon, 30-Nov-2020 12:12am MST
Clear
Clear
 Wind from calm
Wind: Calm
Temperature: 27°F , -3°C
Dew Point: 12°F , -11°C
Humidity: 54%
Barometer: 30.36 inHg , 1028.1 hPa
Clouds: Clear
Visibility: 10 miles , 16 km
2020/11/30 07:12 KBDU 300712Z AUTO 00000KT 10SM CLR M03/M11 A3036 RMK AO2
KEIK - Erie Muni, Colorado, USA
Distance from station: SE 38mi, 61km
Updated: Mon, 30-Nov-2020 12:15am MST
Clear
Clear
 Wind from SSW
Wind: SSW 3 mph , 6 km/h
Temperature: 18°F , -8°C
Dew Point: 14°F , -10°C
Humidity: 86%
Barometer: 30.38 inHg , 1028.8 hPa
Clouds: Clear
Visibility: 10 miles , 16 km
2020/11/30 07:15 KEIK 300715Z AUTO 20003KT 10SM CLR M08/M10 A3038 RMK AO2 T10781098
 
KBJC - Broomfield/Jeffc, Colorado, USA
Distance from station: SSE 44mi, 70km
Updated: Mon, 30-Nov-2020 12:15am MST
Clear
Clear
 Wind from W
Wind: W 3 mph , 6 km/h
Temperature: 25°F , -4°C
Dew Point: 14°F , -10°C
Humidity: 63%
Barometer: 30.37 inHg , 1028.4 hPa
Clouds: Clear
Visibility: 10 miles , 16 km
2020/11/30 07:15 KBJC 300715Z AUTO 27003KT 10SM CLR M04/M10 A3037 RMK AO2
KGXY - Greeley/Weld, Colorado, USA
Distance from station: E 44mi, 71km
Updated: Sun, 29-Nov-2020 11:56pm MST
Clear
Clear
 Wind from calm
Wind: Calm
Temperature: 16°F , -9°C
Dew Point: 10°F , -12°C
Humidity: 79%
Barometer: 30.40 inHg , 1029.5 hPa
Clouds: Clear
Visibility: 10 miles , 16 km
2020/11/30 06:56 KGXY 300656Z AUTO 00000KT 10SM CLR M09/M12 A3040 RMK AO2 SLP341 T10891117 400611100 FZRANO
 
K33V - Walden, Colorado, USA
Distance from station: WNW 48mi, 77km
Updated: Sun, 29-Nov-2020 11:59pm MST
Clear
Clear
 Wind from ESE
Wind: ESE 3 mph , 6 km/h
Temperature: 7°F , -14°C
Dew Point: -2°F , -19°C
Humidity: 66%
Barometer: 30.44 inHg , 1030.8 hPa
Clouds: Clear
Visibility: 10 miles , 16 km
2020/11/30 06:59 K33V 300659Z AUTO 12003KT 10SM CLR M14/M19 A3044 RMK AO1
K0CO - Berthoud Pass, Colorado, USA
Distance from station: SSW 49mi, 79km
Updated: Mon, 30-Nov-2020 12:15am MST
Clear
Clear
 Wind from W
Wind: W 17 mph , 28 km/h
Temperature: 18°F , -8°C
Wind Chill: 3°F , -16°C
Dew Point: -0°F , -18°C
Humidity: 45%
Barometer: 30.40 inHg , 1029.5 hPa
Clouds: Clear
Visibility: 10 miles , 16 km
2020/11/30 07:15 K0CO 300715Z AUTO 27015KT 10SM CLR M08/M18 A3040 RMK AO2 PWINO